createdAt,value
2023-05-06T00:04:23.623Z,97782.69
2023-05-06T00:09:24.938Z,97773.69
2023-05-06T00:14:26.209Z,97763.75
2023-05-06T00:19:27.501Z,97755.84
2023-05-06T00:24:28.906Z,97753.09
2023-05-06T00:29:30.352Z,97745.06
2023-05-06T00:34:31.656Z,97740.13
2023-05-06T00:39:34.493Z,97730.84
2023-05-06T00:44:36.019Z,97730.78
2023-05-06T00:49:37.291Z,97725.84
2023-05-06T00:54:38.541Z,97721.22
2023-05-06T00:59:40.380Z,97721.66
2023-05-06T01:04:41.783Z,97719.97
2023-05-06T01:09:43.053Z,97714.66
2023-05-06T01:14:44.356Z,97717.34
2023-05-06T01:19:53.366Z,97713.25
2023-05-06T01:24:54.633Z,97704.66
2023-05-06T01:29:55.892Z,97706.22
2023-05-06T01:34:57.305Z,97709.13
2023-05-06T01:39:58.527Z,97711.59
2023-05-06T01:44:59.789Z,97709.09
2023-05-06T01:50:01.132Z,97720.00
2023-05-06T01:55:02.569Z,97721.69
2023-05-06T02:00:03.811Z,97713.06
2023-05-06T02:05:05.049Z,97721.38
2023-05-06T02:10:06.315Z,97719.28
2023-05-06T02:15:07.698Z,97717.63
2023-05-06T02:20:12.248Z,97710.88
2023-05-06T02:25:13.566Z,97715.53
2023-05-06T02:30:15.040Z,97717.38
2023-05-06T02:35:16.394Z,97707.78
2023-05-06T02:40:17.698Z,97711.59
2023-05-06T02:45:18.996Z,97715.25
2023-05-06T02:50:20.376Z,97711.72
2023-05-06T02:55:21.653Z,97703.63
2023-05-06T03:00:22.897Z,97701.69
2023-05-06T03:05:24.150Z,97706.09
2023-05-06T03:10:25.765Z,97710.59
2023-05-06T03:15:27.475Z,97715.19
2023-05-06T03:20:28.860Z,97713.69
2023-05-06T03:25:30.357Z,97709.69
2023-05-06T03:30:31.650Z,97709.66
2023-05-06T03:35:32.895Z,97697.72
2023-05-06T03:40:34.211Z,97695.25
2023-05-06T03:45:35.596Z,97691.47
2023-05-06T03:50:36.932Z,97701.94
2023-05-06T03:55:38.166Z,97697.47
2023-05-06T04:00:39.524Z,97705.38
2023-05-06T04:05:40.739Z,97704.94
2023-05-06T04:10:42.051Z,97719.03
2023-05-06T04:15:43.522Z,97728.47
2023-05-06T04:20:44.930Z,97728.66
2023-05-06T04:25:48.721Z,97728.28
2023-05-06T04:30:50.021Z,97727.53
2023-05-06T04:35:53.700Z,97737.09
2023-05-06T04:40:55.450Z,97737.63
2023-05-06T04:45:57.297Z,97744.53
2023-05-06T04:50:58.615Z,97752.66
2023-05-06T04:55:59.872Z,97756.44
2023-05-06T05:01:01.158Z,97763.75
2023-05-06T05:06:02.455Z,97765.03
2023-05-06T05:11:03.684Z,97769.63
2023-05-06T05:16:04.906Z,97770.19
2023-05-06T05:21:06.253Z,97761.66
2023-05-06T05:26:07.486Z,97755.09
2023-05-06T05:31:10.333Z,97757.56
2023-05-06T05:36:12.525Z,97754.84
2023-05-06T05:41:15.451Z,97763.94
2023-05-06T05:46:18.028Z,97772.16
2023-05-06T05:51:19.251Z,97775.72
2023-05-06T05:56:20.716Z,97770.22
2023-05-06T06:01:22.052Z,97765.56
2023-05-06T06:06:24.337Z,97750.88
2023-05-06T06:11:26.888Z,97754.69
2023-05-06T06:16:28.176Z,97752.19
2023-05-06T06:21:29.447Z,97758.44
2023-05-06T06:26:30.716Z,97762.44
2023-05-06T06:31:33.921Z,97758.41
2023-05-06T06:36:35.272Z,97771.13
2023-05-06T06:41:36.476Z,97777.81
2023-05-06T06:46:38.635Z,97777.19
2023-05-06T06:51:40.000Z,97780.00
2023-05-06T06:56:41.258Z,97795.75
2023-05-06T07:01:42.609Z,97793.06
2023-05-06T07:06:43.930Z,97789.22
2023-05-06T07:11:45.211Z,97800.03
2023-05-06T07:16:47.625Z,97796.59
2023-05-06T07:21:49.958Z,97800.34
2023-05-06T07:26:51.202Z,97804.38
2023-05-06T07:31:52.418Z,97807.59
2023-05-06T07:36:53.625Z,97801.91
2023-05-06T07:41:54.845Z,97807.06
2023-05-06T07:46:56.140Z,97812.53
2023-05-06T07:51:57.414Z,97817.88
2023-05-06T07:56:58.963Z,97818.50
2023-05-06T08:02:00.271Z,97821.16
2023-05-06T08:07:01.512Z,97822.25
2023-05-06T08:12:02.776Z,97832.75
2023-05-06T08:17:04.046Z,97841.22
2023-05-06T08:22:05.388Z,97841.75
2023-05-06T08:27:07.165Z,97843.22
2023-05-06T08:32:08.569Z,97843.91
2023-05-06T08:37:09.909Z,97839.88
2023-05-06T08:42:14.484Z,97826.31
2023-05-06T08:47:15.775Z,97815.81
2023-05-06T08:52:17.117Z,97816.69
2023-05-06T08:57:18.390Z,97801.03
2023-05-06T09:02:20.406Z,97795.03
2023-05-06T09:07:21.671Z,97797.94
2023-05-06T09:12:22.873Z,97784.00
2023-05-06T09:17:26.385Z,97774.28
2023-05-06T09:22:27.848Z,97774.84
2023-05-06T09:27:29.197Z,97762.91
2023-05-06T09:32:30.533Z,97763.63
2023-05-06T09:37:31.852Z,97751.06
2023-05-06T09:42:33.371Z,97751.53
2023-05-06T09:47:35.200Z,97738.50
2023-05-06T09:52:36.702Z,97742.47
2023-05-06T09:57:38.108Z,97727.50
2023-05-06T10:02:39.457Z,97734.94
2023-05-06T10:07:42.054Z,97729.44
2023-05-06T10:12:43.355Z,97725.34
2023-05-06T10:17:47.437Z,97724.47
2023-05-06T10:22:51.907Z,97712.13
2023-05-06T10:27:53.120Z,97708.50
2023-05-06T10:32:54.904Z,97681.72
2023-05-06T10:37:56.639Z,97672.75
2023-05-06T10:42:57.856Z,97661.66
2023-05-06T10:47:59.111Z,97648.97
2023-05-06T10:53:00.442Z,97636.97
2023-05-06T10:58:01.736Z,97622.94
2023-05-06T11:03:03.200Z,97617.78
2023-05-06T11:08:04.467Z,97611.88
2023-05-06T11:13:05.830Z,97615.88
2023-05-06T11:18:07.162Z,97605.59
2023-05-06T11:23:08.503Z,97607.41
2023-05-06T11:28:09.771Z,97595.06
2023-05-06T11:33:11.045Z,97604.31
2023-05-06T11:38:12.380Z,97594.59
2023-05-06T11:43:13.712Z,97611.31
2023-05-06T11:48:14.972Z,97616.91
2023-05-06T11:53:16.500Z,97609.06
2023-05-06T11:58:17.732Z,97602.22
2023-05-06T12:03:19.434Z,97584.00
2023-05-06T12:08:27.554Z,97588.22
2023-05-06T12:13:29.742Z,97579.31
2023-05-06T12:18:31.021Z,97577.41
2023-05-06T12:23:32.470Z,97578.34
2023-05-06T12:28:33.783Z,97563.78
2023-05-06T12:33:35.084Z,97568.44
2023-05-06T12:38:36.394Z,97553.34
2023-05-06T12:43:37.900Z,97552.13
2023-05-06T12:48:39.670Z,97535.28
2023-05-06T12:53:40.970Z,97536.72
2023-05-06T12:58:42.256Z,97541.47
2023-05-06T13:03:43.931Z,97540.59
2023-05-06T13:08:45.171Z,97538.28
2023-05-06T13:13:46.457Z,97537.22
2023-05-06T13:18:47.731Z,97533.28
2023-05-06T13:23:49.263Z,97533.91
2023-05-06T13:28:51.000Z,97529.31
2023-05-06T13:33:52.323Z,97525.81
2023-05-06T13:38:54.144Z,97526.09
2023-05-06T13:43:55.458Z,97512.75
2023-05-06T13:48:56.654Z,97508.78
2023-05-06T13:53:58.020Z,97518.53
2023-05-06T13:58:59.292Z,97508.84
2023-05-06T14:04:00.736Z,97496.75
2023-05-06T14:09:02.069Z,97481.94
2023-05-06T14:14:03.421Z,97484.09
2023-05-06T14:19:05.723Z,97476.13
2023-05-06T14:24:07.737Z,97471.34
2023-05-06T14:29:09.300Z,97469.19
2023-05-06T14:34:11.369Z,97472.78
2023-05-06T14:39:12.724Z,97474.59
2023-05-06T14:44:13.996Z,97468.50
2023-05-06T14:49:15.431Z,97462.03
2023-05-06T14:54:17.356Z,97458.53
2023-05-06T14:59:18.868Z,97463.84
2023-05-06T15:04:20.231Z,97459.50
2023-05-06T15:09:21.517Z,97456.81
2023-05-06T15:14:22.810Z,97460.84
2023-05-06T15:19:24.095Z,97464.69
2023-05-06T15:24:26.077Z,97459.84
2023-05-06T15:29:27.343Z,97464.81
2023-05-06T15:34:28.575Z,97466.34
2023-05-06T15:39:30.190Z,97471.53
2023-05-06T15:44:32.483Z,97469.72
2023-05-06T15:49:51.605Z,97467.13
2023-05-06T15:54:59.450Z,97476.16
2023-05-06T16:00:01.736Z,97471.81
2023-05-06T16:05:04.092Z,97473.28
2023-05-06T16:10:05.562Z,97462.66
2023-05-06T16:15:06.839Z,97464.34
2023-05-06T16:20:10.341Z,97462.47
2023-05-06T16:25:11.937Z,97467.03
2023-05-06T16:30:13.245Z,97463.34
2023-05-06T16:35:14.535Z,97470.28
2023-05-06T16:40:17.145Z,97463.38
2023-05-06T16:45:18.420Z,97456.56
2023-05-06T16:50:19.698Z,97464.00
2023-05-06T16:55:21.928Z,97456.00
2023-05-06T17:00:23.701Z,97457.88
2023-05-06T17:05:25.011Z,97461.84
2023-05-06T17:10:29.329Z,97472.06
2023-05-06T17:15:31.074Z,97492.72
2023-05-06T17:20:37.965Z,97501.59
2023-05-06T17:25:45.496Z,97518.31
2023-05-06T17:30:46.846Z,97513.09
2023-05-06T17:35:48.125Z,97529.13
2023-05-06T17:40:49.459Z,97531.03
2023-05-06T17:45:50.765Z,97533.69
2023-05-06T17:50:52.140Z,97541.88
2023-05-06T17:55:53.428Z,97538.28
2023-05-06T18:00:54.642Z,97544.78
2023-05-06T18:05:55.865Z,97552.63
2023-05-06T18:10:57.114Z,97538.00
2023-05-06T18:15:58.466Z,97544.44
2023-05-06T18:20:59.791Z,97541.91
2023-05-06T18:26:01.034Z,97551.06
2023-05-06T18:31:02.285Z,97567.66
2023-05-06T18:36:03.643Z,97576.25
2023-05-06T18:41:05.030Z,97586.56
2023-05-06T18:46:06.366Z,97585.53
2023-05-06T18:51:07.729Z,97599.31
2023-05-06T18:56:08.999Z,97604.22
2023-05-06T19:01:10.697Z,97622.78
2023-05-06T19:06:12.473Z,97623.81
2023-05-06T19:11:13.979Z,97638.09
2023-05-06T19:16:15.399Z,97638.63
2023-05-06T19:21:18.475Z,97639.03
2023-05-06T19:26:19.708Z,97632.56
2023-05-06T19:31:20.990Z,97635.84
2023-05-06T19:36:22.305Z,97641.84
2023-05-06T19:41:23.571Z,97642.81
2023-05-06T19:46:25.689Z,97643.28
2023-05-06T19:51:26.963Z,97658.56
2023-05-06T19:56:28.207Z,97662.78
2023-05-06T20:01:29.471Z,97662.41
2023-05-06T20:06:32.104Z,97656.97
2023-05-06T20:11:33.378Z,97662.22
2023-05-06T20:16:34.821Z,97655.03
2023-05-06T20:21:36.238Z,97654.72
2023-05-06T20:26:37.750Z,97660.97
2023-05-06T20:31:38.989Z,97670.41
2023-05-06T20:36:40.309Z,97668.56
2023-05-06T20:41:41.556Z,97670.97
2023-05-06T20:46:42.855Z,97665.38
2023-05-06T20:51:44.173Z,97677.44
2023-05-06T20:56:45.428Z,97668.53
2023-05-06T21:01:46.711Z,97670.97
2023-05-06T21:06:48.040Z,97662.50
2023-05-06T21:11:49.356Z,97669.63
2023-05-06T21:16:50.743Z,97673.75
2023-05-06T21:21:52.048Z,97669.69
2023-05-06T21:26:53.720Z,97673.44
2023-05-06T21:31:54.938Z,97668.75
2023-05-06T21:36:57.479Z,97671.91
2023-05-06T21:41:58.842Z,97676.81
2023-05-06T21:47:00.199Z,97676.47
2023-05-06T21:52:01.474Z,97677.16
2023-05-06T21:57:02.832Z,97676.22
2023-05-06T22:02:04.220Z,97675.84
2023-05-06T22:07:05.633Z,97676.91
2023-05-06T22:12:08.657Z,97677.19
2023-05-06T22:17:10.555Z,97687.97
2023-05-06T22:22:12.118Z,97686.50
2023-05-06T22:27:13.364Z,97690.06
2023-05-06T22:32:14.571Z,97692.69
2023-05-06T22:37:16.323Z,97688.13
2023-05-06T22:42:17.762Z,97690.38
2023-05-06T22:47:19.861Z,97702.59
2023-05-06T22:52:21.472Z,97702.81
2023-05-06T22:57:25.373Z,97703.69
2023-05-06T23:02:26.723Z,97706.91
2023-05-06T23:07:27.943Z,97704.81
2023-05-06T23:12:29.246Z,97709.47
2023-05-06T23:17:30.843Z,97700.47
2023-05-06T23:22:32.164Z,97700.78
2023-05-06T23:27:33.416Z,97695.06
2023-05-06T23:32:34.749Z,97699.16
2023-05-06T23:37:36.037Z,97696.66
2023-05-06T23:42:37.334Z,97692.00
2023-05-06T23:47:38.613Z,97704.88
2023-05-06T23:52:39.924Z,97691.31
2023-05-06T23:57:41.273Z,97691.16
